createdAt,value
2019-02-28T00:05:11.614Z,5.57
2019-02-28T00:07:41.714Z,3.70
2019-02-28T00:10:31.480Z,4.23
2019-02-28T00:13:21.831Z,4.50
2019-02-28T00:15:52.694Z,4.40
2019-02-28T00:18:42.144Z,5.00
2019-02-28T00:21:12.717Z,4.23
2019-02-28T00:24:02.194Z,4.70
2019-02-28T00:26:32.298Z,4.70
2019-02-28T00:29:02.458Z,4.53
2019-02-28T00:34:15.243Z,4.40
2019-02-28T00:37:04.660Z,4.90
2019-02-28T00:39:54.156Z,5.27
2019-02-28T00:42:24.329Z,4.70
2019-02-28T00:44:54.489Z,4.73
2019-02-28T00:47:24.959Z,4.07
2019-02-28T00:50:14.437Z,4.80
2019-02-28T00:53:06.389Z,4.43
2019-02-28T00:55:35.466Z,5.13
2019-02-28T00:58:28.652Z,4.63
2019-02-28T01:00:56.537Z,4.57
2019-02-28T01:03:45.990Z,4.97
2019-02-28T01:06:35.470Z,5.03
2019-02-28T01:09:07.016Z,4.77
2019-02-28T01:11:37.220Z,5.23
2019-02-28T01:14:26.672Z,5.00
2019-02-28T01:16:56.795Z,5.00
2019-02-28T01:19:26.945Z,5.00
2019-02-28T01:22:16.136Z,5.03
2019-02-28T01:25:06.484Z,4.80
2019-02-28T01:30:57.849Z,5.53
2019-02-28T01:33:27.998Z,5.03
2019-02-28T01:36:17.188Z,5.37
2019-02-28T01:39:29.834Z,5.13
2019-02-28T01:42:19.980Z,4.90
2019-02-28T01:44:49.836Z,5.07
2019-02-28T01:47:21.346Z,5.23
2019-02-28T01:50:11.162Z,5.30
2019-02-28T01:52:45.679Z,4.73
2019-02-28T01:55:32.519Z,5.63
2019-02-28T01:58:21.728Z,4.83
2019-02-28T02:00:53.611Z,5.23
2019-02-28T02:03:24.094Z,4.83
2019-02-28T02:06:13.322Z,4.50
2019-02-28T02:08:43.438Z,5.03
2019-02-28T02:11:32.889Z,5.10
2019-02-28T02:14:03.624Z,5.73
2019-02-28T02:16:33.929Z,5.47
2019-02-28T02:19:23.421Z,5.83
2019-02-28T02:21:53.584Z,4.97
2019-02-28T02:24:24.394Z,5.97
2019-02-28T02:27:06.245Z,5.40
2019-02-28T02:29:37.112Z,5.77
2019-02-28T02:32:27.284Z,6.10
2019-02-28T02:35:16.497Z,6.27
2019-02-28T02:38:05.646Z,5.63
2019-02-28T02:40:58.995Z,5.10
2019-02-28T02:43:27.030Z,5.37
2019-02-28T02:46:20.172Z,6.43
2019-02-28T02:49:07.401Z,6.80
2019-02-28T02:51:56.884Z,5.80
2019-02-28T02:54:46.089Z,6.20
2019-02-28T02:57:16.287Z,6.47
2019-02-28T03:00:13.366Z,6.13
2019-02-28T03:02:57.416Z,6.03
2019-02-28T03:05:46.838Z,5.87
2019-02-28T03:08:37.305Z,6.33
2019-02-28T03:11:26.915Z,5.90
2019-02-28T03:14:17.324Z,5.67
2019-02-28T03:16:48.253Z,6.37
2019-02-28T03:19:18.792Z,6.17
2019-02-28T03:21:52.571Z,5.67
2019-02-28T03:24:39.923Z,6.27
2019-02-28T03:27:21.142Z,6.67
2019-02-28T03:29:51.345Z,6.43
2019-02-28T03:32:39.690Z,7.50
2019-02-28T03:35:16.591Z,6.67
2019-02-28T03:37:58.345Z,6.30
2019-02-28T03:40:28.586Z,6.33
2019-02-28T03:43:05.222Z,6.30
2019-02-28T03:45:50.006Z,6.57
2019-02-28T03:48:20.177Z,6.40
2019-02-28T03:50:55.342Z,7.00
2019-02-28T03:53:41.580Z,6.47
2019-02-28T03:56:30.913Z,6.60
2019-02-28T03:59:01.105Z,6.93
2019-02-28T04:01:31.766Z,6.93
2019-02-28T04:04:21.272Z,6.67
2019-02-28T04:07:15.391Z,6.63
2019-02-28T04:10:01.662Z,7.30
2019-02-28T04:12:50.848Z,6.60
2019-02-28T04:15:49.749Z,5.93
2019-02-28T04:18:31.254Z,6.77
2019-02-28T04:21:20.409Z,6.60
2019-02-28T04:23:50.559Z,6.70
2019-02-28T04:26:23.094Z,5.77
2019-02-28T04:28:54.729Z,7.17
2019-02-28T04:31:24.954Z,6.90
2019-02-28T04:33:55.173Z,6.93
2019-02-28T04:36:25.493Z,6.63
2019-02-28T04:38:55.633Z,6.30
2019-02-28T04:41:26.078Z,6.60
2019-02-28T04:44:18.278Z,6.37
2019-02-28T04:47:06.858Z,7.43
2019-02-28T04:49:57.725Z,6.67
2019-02-28T04:52:27.913Z,6.63
2019-02-28T04:55:17.419Z,6.37
2019-02-28T04:58:06.626Z,6.17
2019-02-28T05:00:56.134Z,7.27
2019-02-28T05:03:29.074Z,7.13
2019-02-28T05:06:18.365Z,7.17
2019-02-28T05:09:10.663Z,7.30
2019-02-28T05:12:02.383Z,6.83
2019-02-28T05:14:51.104Z,6.40
2019-02-28T05:17:22.305Z,6.47
2019-02-28T05:19:55.150Z,7.33
2019-02-28T05:22:44.470Z,6.47
2019-02-28T05:25:17.364Z,6.60
2019-02-28T05:27:46.965Z,5.97
2019-02-28T05:30:19.457Z,6.47
2019-02-28T05:32:49.798Z,6.70
2019-02-28T05:35:25.175Z,6.60
2019-02-28T05:38:11.199Z,5.97
2019-02-28T05:41:00.449Z,6.80
2019-02-28T05:43:49.634Z,6.03
2019-02-28T05:46:23.764Z,6.73
2019-02-28T05:49:12.062Z,7.10
2019-02-28T05:51:42.257Z,6.97
2019-02-28T05:58:00.418Z,6.30
2019-02-28T06:00:49.593Z,6.93
2019-02-28T06:03:38.954Z,7.10
2019-02-28T06:06:28.371Z,6.23
2019-02-28T06:09:17.571Z,6.20
2019-02-28T06:12:09.531Z,6.40
2019-02-28T06:15:02.190Z,6.13
2019-02-28T06:17:29.949Z,6.13
2019-02-28T06:20:00.370Z,6.20
2019-02-28T06:22:36.049Z,6.43
2019-02-28T06:25:24.970Z,6.83
2019-02-28T06:28:04.953Z,5.63
2019-02-28T06:30:35.574Z,6.50
2019-02-28T06:33:05.815Z,6.43
2019-02-28T06:35:45.816Z,6.33
2019-02-28T06:38:35.014Z,6.73
2019-02-28T06:41:24.201Z,6.27
2019-02-28T06:44:13.388Z,6.97
2019-02-28T06:47:02.566Z,5.97
2019-02-28T06:49:32.811Z,6.87
2019-02-28T06:52:25.242Z,6.57
2019-02-28T06:54:55.164Z,6.30
2019-02-28T06:57:44.348Z,6.73
2019-02-28T07:00:33.854Z,6.33
2019-02-28T07:03:04.499Z,6.77
2019-02-28T07:05:34.673Z,7.53
2019-02-28T07:08:24.808Z,6.20
2019-02-28T07:11:14.888Z,7.13
2019-02-28T07:13:56.348Z,6.93
2019-02-28T07:16:26.701Z,7.17
2019-02-28T07:18:56.924Z,6.63
2019-02-28T07:21:46.232Z,7.07
2019-02-28T07:24:37.586Z,6.90
2019-02-28T07:27:17.211Z,7.37
2019-02-28T07:29:47.474Z,6.70
2019-02-28T07:32:17.709Z,7.10
2019-02-28T07:34:59.036Z,6.33
2019-02-28T07:37:29.272Z,6.60
2019-02-28T07:39:59.530Z,7.13
2019-02-28T07:42:48.723Z,5.87
2019-02-28T07:45:37.922Z,6.77
2019-02-28T07:48:29.948Z,7.03
2019-02-28T07:51:21.847Z,6.00
2019-02-28T07:54:12.657Z,6.40
2019-02-28T07:56:43.214Z,6.73
2019-02-28T07:59:13.318Z,6.67
2019-02-28T08:01:43.626Z,5.70
2019-02-28T08:04:18.036Z,5.60
2019-02-28T08:06:46.042Z,5.93
2019-02-28T08:09:36.835Z,6.33
2019-02-28T08:12:07.219Z,6.73
2019-02-28T08:14:56.837Z,5.83
2019-02-28T08:17:26.996Z,6.63
2019-02-28T08:19:58.731Z,7.30
2019-02-28T08:22:31.292Z,5.90
2019-02-28T08:25:01.564Z,5.93
2019-02-28T08:27:31.751Z,6.30
2019-02-28T08:30:02.236Z,6.67
2019-02-28T08:32:51.660Z,6.83
2019-02-28T08:35:41.143Z,7.37
2019-02-28T08:38:34.271Z,7.13
2019-02-28T08:41:02.602Z,7.43
2019-02-28T08:43:51.934Z,7.03
2019-02-28T08:46:22.144Z,6.60
2019-02-28T08:49:11.604Z,6.60
2019-02-28T08:52:02.465Z,6.40
2019-02-28T08:54:51.995Z,6.30
2019-02-28T08:57:41.197Z,7.80
2019-02-28T09:00:34.300Z,6.90
2019-02-28T09:03:04.858Z,6.77
2019-02-28T09:05:54.060Z,7.40
2019-02-28T09:08:25.310Z,7.90
2019-02-28T09:10:56.121Z,9.10
2019-02-28T09:13:26.911Z,9.17
2019-02-28T09:16:16.352Z,6.87
2019-02-28T09:18:49.312Z,7.53
2019-02-28T09:21:41.218Z,7.90
2019-02-28T09:24:12.555Z,7.70
2019-02-28T09:27:04.088Z,7.93
2019-02-28T09:29:54.901Z,8.73
2019-02-28T09:32:29.214Z,8.30
2019-02-28T09:35:18.889Z,9.07
2019-02-28T09:38:00.284Z,7.63
2019-02-28T09:43:23.882Z,7.70
2019-02-28T09:46:12.485Z,7.53
2019-02-28T09:49:02.959Z,8.67
2019-02-28T09:51:52.516Z,8.37
2019-02-28T09:54:25.515Z,8.47
2019-02-28T09:56:56.755Z,8.00
2019-02-28T09:59:27.479Z,8.23
2019-02-28T10:02:01.470Z,8.17
2019-02-28T10:04:30.469Z,7.73
2019-02-28T10:07:23.439Z,8.37
2019-02-28T10:09:52.564Z,7.87
2019-02-28T10:12:43.099Z,8.63
2019-02-28T10:15:32.355Z,7.97
2019-02-28T10:18:04.240Z,8.47
2019-02-28T10:20:34.771Z,8.00
2019-02-28T10:23:24.000Z,8.00
2019-02-28T10:25:54.167Z,8.37
2019-02-28T10:28:43.389Z,7.63
2019-02-28T10:31:13.838Z,7.60
2019-02-28T10:33:44.406Z,7.43
2019-02-28T10:36:14.954Z,8.00
2019-02-28T10:38:56.559Z,6.43
2019-02-28T10:41:28.124Z,6.10
2019-02-28T10:43:58.953Z,6.00
2019-02-28T10:46:50.287Z,7.07
2019-02-28T10:49:21.074Z,7.30
2019-02-28T10:51:52.289Z,6.57
2019-02-28T10:54:24.149Z,5.90
2019-02-28T10:57:13.564Z,5.83
2019-02-28T10:59:43.723Z,6.53
2019-02-28T11:02:34.366Z,6.93
2019-02-28T11:05:07.982Z,6.10
2019-02-28T11:07:57.728Z,6.53
2019-02-28T11:10:47.059Z,6.13
2019-02-28T11:13:18.894Z,5.97
2019-02-28T11:15:49.670Z,5.50
2019-02-28T11:18:20.233Z,6.27
2019-02-28T11:20:51.021Z,6.40
2019-02-28T11:23:21.350Z,6.03
2019-02-28T11:25:53.022Z,6.13
2019-02-28T11:28:27.774Z,5.97
2019-02-28T11:31:16.334Z,6.23
2019-02-28T11:33:47.223Z,6.17
2019-02-28T11:36:20.543Z,5.97
2019-02-28T11:38:52.502Z,6.23
2019-02-28T11:41:42.919Z,5.60
2019-02-28T11:44:13.141Z,6.27
2019-02-28T11:46:43.756Z,5.53
2019-02-28T11:49:33.143Z,5.40
2019-02-28T11:52:03.296Z,5.60
2019-02-28T11:58:01.707Z,5.73
2019-02-28T12:00:35.639Z,6.20
2019-02-28T12:03:24.418Z,5.50
2019-02-28T12:06:14.957Z,5.63
2019-02-28T12:08:45.773Z,5.50
2019-02-28T12:11:57.605Z,5.57
2019-02-28T12:14:48.204Z,5.63
2019-02-28T12:17:18.437Z,5.70
2019-02-28T12:19:50.685Z,5.83
2019-02-28T12:22:39.522Z,5.20
2019-02-28T12:25:12.503Z,5.00
2019-02-28T12:27:43.798Z,5.10
2019-02-28T12:30:18.814Z,5.40
2019-02-28T12:33:08.033Z,5.97
2019-02-28T12:35:40.499Z,5.50
2019-02-28T12:38:10.156Z,5.70
2019-02-28T12:40:42.484Z,5.13
2019-02-28T12:43:12.748Z,5.20
2019-02-28T12:46:02.069Z,5.20
2019-02-28T12:48:51.305Z,5.63
2019-02-28T12:51:21.486Z,6.93
2019-02-28T12:54:10.702Z,5.63
2019-02-28T12:56:41.847Z,6.57
2019-02-28T12:59:12.092Z,6.53
2019-02-28T13:02:01.279Z,6.63
2019-02-28T13:04:50.552Z,6.17
2019-02-28T13:07:20.689Z,6.43
2019-02-28T13:09:52.667Z,6.33
2019-02-28T13:12:24.469Z,6.40
2019-02-28T13:14:54.864Z,6.33
2019-02-28T13:17:25.098Z,6.83
2019-02-28T13:19:56.574Z,5.93
2019-02-28T13:22:27.143Z,7.63
2019-02-28T13:24:57.356Z,7.20
2019-02-28T13:27:27.870Z,7.63
2019-02-28T13:29:58.154Z,6.67
2019-02-28T13:32:28.664Z,7.10
2019-02-28T13:35:03.083Z,7.10
2019-02-28T13:37:30.891Z,7.30
2019-02-28T13:40:04.289Z,7.17
2019-02-28T13:42:36.206Z,6.77
2019-02-28T13:45:24.934Z,6.63
2019-02-28T13:47:55.035Z,7.90
2019-02-28T13:50:27.089Z,7.13
2019-02-28T13:53:02.491Z,6.97
2019-02-28T13:55:29.628Z,6.70
2019-02-28T13:58:21.648Z,6.53
2019-02-28T14:00:51.180Z,6.70
2019-02-28T14:03:21.442Z,7.30
2019-02-28T14:05:51.865Z,6.97
2019-02-28T14:08:22.055Z,6.33
2019-02-28T14:10:55.090Z,6.63
2019-02-28T14:13:25.250Z,6.47
2019-02-28T14:15:56.804Z,6.40
2019-02-28T14:18:26.961Z,6.10
2019-02-28T14:20:59.439Z,6.77
2019-02-28T14:23:48.356Z,7.03
2019-02-28T14:26:18.516Z,6.23
2019-02-28T14:28:49.123Z,6.40
2019-02-28T14:31:39.082Z,7.13
2019-02-28T14:34:10.360Z,7.83
2019-02-28T14:36:44.837Z,5.60
2019-02-28T14:39:25.057Z,6.27
2019-02-28T14:41:57.789Z,5.90
2019-02-28T14:44:31.752Z,6.33
2019-02-28T14:47:24.927Z,7.03
2019-02-28T14:49:54.367Z,6.07
2019-02-28T14:52:26.170Z,6.33
2019-02-28T14:54:57.354Z,6.80
2019-02-28T14:57:48.848Z,6.70
2019-02-28T15:00:42.075Z,6.57
2019-02-28T15:03:29.782Z,6.33
2019-02-28T15:06:19.011Z,6.57
2019-02-28T15:09:14.240Z,7.57
2019-02-28T15:12:03.678Z,7.13
2019-02-28T15:14:52.823Z,6.80
2019-02-28T15:17:42.054Z,6.23
2019-02-28T15:20:32.906Z,6.47
2019-02-28T15:23:22.188Z,7.27
2019-02-28T15:26:11.625Z,6.23
2019-02-28T15:28:45.506Z,6.80
2019-02-28T15:33:57.480Z,6.53
2019-02-28T15:36:46.615Z,6.23
2019-02-28T15:39:17.378Z,6.23
2019-02-28T15:42:09.039Z,6.20
2019-02-28T15:45:00.424Z,5.63
2019-02-28T15:51:00.345Z,6.57
2019-02-28T15:53:50.369Z,7.40
2019-02-28T15:56:39.616Z,6.80
2019-02-28T15:59:28.760Z,8.30
2019-02-28T16:02:18.045Z,8.20
2019-02-28T16:04:48.148Z,9.80
2019-02-28T16:07:37.371Z,10.50
2019-02-28T16:10:28.553Z,10.70
2019-02-28T16:13:18.146Z,10.50
2019-02-28T16:16:07.694Z,10.13
2019-02-28T16:18:47.989Z,10.57
2019-02-28T16:21:38.205Z,9.27
2019-02-28T16:24:28.229Z,10.03
2019-02-28T16:27:17.389Z,9.63
2019-02-28T16:30:07.346Z,10.40
2019-02-28T16:32:37.544Z,10.30
2019-02-28T16:35:28.887Z,10.40
2019-02-28T16:38:17.763Z,11.10
2019-02-28T16:41:06.893Z,11.90
2019-02-28T16:43:57.160Z,11.03
2019-02-28T16:46:49.945Z,11.77
2019-02-28T16:49:19.180Z,11.63
2019-02-28T16:55:03.824Z,10.97
2019-02-28T16:57:52.990Z,10.83
2019-02-28T17:00:23.129Z,11.80
2019-02-28T17:03:12.606Z,9.23
2019-02-28T17:06:02.356Z,8.93
2019-02-28T17:09:15.024Z,9.73
2019-02-28T17:14:52.409Z,8.37
2019-02-28T17:20:23.769Z,7.90
2019-02-28T17:23:13.006Z,10.20
2019-02-28T17:25:43.275Z,9.13
2019-02-28T17:31:44.552Z,8.23
2019-02-28T17:34:23.877Z,8.90
2019-02-28T17:36:52.221Z,8.27
2019-02-28T17:39:25.189Z,7.87
2019-02-28T17:41:55.688Z,8.23
2019-02-28T17:44:51.458Z,7.70
2019-02-28T17:48:09.623Z,7.90
2019-02-28T17:51:15.009Z,8.00
2019-02-28T17:54:04.783Z,8.60
2019-02-28T17:57:16.539Z,7.90
2019-02-28T18:00:12.953Z,8.77
2019-02-28T18:03:18.590Z,8.30
2019-02-28T18:06:11.980Z,9.07
2019-02-28T18:09:22.174Z,9.03
2019-02-28T18:12:31.317Z,8.77
2019-02-28T18:15:25.660Z,8.33
2019-02-28T18:18:33.178Z,8.47
2019-02-28T18:21:32.106Z,8.90
2019-02-28T18:24:58.493Z,9.77
2019-02-28T18:28:22.596Z,9.13
2019-02-28T18:31:04.386Z,9.30
2019-02-28T18:33:34.636Z,9.43
2019-02-28T18:36:10.616Z,8.97
2019-02-28T18:38:40.783Z,9.27
2019-02-28T18:41:11.101Z,9.50
2019-02-28T18:43:42.109Z,9.53
2019-02-28T18:46:12.549Z,8.13
2019-02-28T18:48:43.497Z,8.07
2019-02-28T18:51:14.244Z,8.83
2019-02-28T18:53:44.966Z,7.70
2019-02-28T18:56:15.195Z,6.83
2019-02-28T18:58:45.323Z,6.70
2019-02-28T19:01:15.477Z,5.73
2019-02-28T19:03:46.403Z,6.00
2019-02-28T19:06:17.179Z,6.30
2019-02-28T19:08:48.367Z,5.37
2019-02-28T19:11:21.965Z,4.67
2019-02-28T19:13:52.516Z,4.60
2019-02-28T19:16:23.252Z,4.90
2019-02-28T19:18:54.056Z,4.90
2019-02-28T19:21:24.301Z,4.73
2019-02-28T19:23:59.550Z,4.20
2019-02-28T19:26:29.870Z,4.07
2019-02-28T19:29:02.064Z,4.70
2019-02-28T19:31:33.565Z,4.00
2019-02-28T19:34:04.571Z,4.23
2019-02-28T19:36:35.043Z,3.57
2019-02-28T19:39:06.903Z,4.27
2019-02-28T19:41:37.560Z,4.60
2019-02-28T19:44:08.925Z,3.87
2019-02-28T19:46:39.209Z,3.27
2019-02-28T19:49:10.527Z,4.40
2019-02-28T19:51:41.169Z,4.37
2019-02-28T19:54:14.179Z,3.63
2019-02-28T19:56:47.492Z,3.20
2019-02-28T19:59:18.125Z,2.73
2019-02-28T20:01:48.441Z,2.90
2019-02-28T20:04:18.980Z,3.33
2019-02-28T20:06:51.125Z,3.00
2019-02-28T20:09:21.966Z,3.30
2019-02-28T20:11:53.890Z,3.27
2019-02-28T20:14:26.094Z,2.90
2019-02-28T20:16:56.781Z,3.13
2019-02-28T20:19:28.045Z,3.03
2019-02-28T20:21:59.782Z,3.27
2019-02-28T20:24:31.418Z,2.10
2019-02-28T20:27:01.684Z,3.00
2019-02-28T20:29:31.990Z,2.93
2019-02-28T20:32:03.206Z,2.70
2019-02-28T20:34:35.937Z,3.53
2019-02-28T20:37:07.907Z,3.93
2019-02-28T20:39:38.381Z,3.20
2019-02-28T20:42:08.520Z,3.03
2019-02-28T20:44:38.703Z,3.03
2019-02-28T20:47:09.346Z,3.33
2019-02-28T20:49:46.510Z,3.57
2019-02-28T20:52:17.281Z,3.33
2019-02-28T20:54:51.607Z,3.00
2019-02-28T20:57:21.715Z,3.73
2019-02-28T20:59:51.998Z,2.93
2019-02-28T21:02:22.476Z,3.10
2019-02-28T21:04:52.804Z,3.07
2019-02-28T21:07:23.226Z,2.83
2019-02-28T21:09:53.675Z,3.80
2019-02-28T21:12:23.841Z,3.47
2019-02-28T21:14:53.977Z,3.60
2019-02-28T21:17:29.388Z,4.10
2019-02-28T21:19:56.728Z,3.17
2019-02-28T21:22:29.738Z,5.07
2019-02-28T21:24:59.921Z,3.17
2019-02-28T21:27:30.147Z,2.53
2019-02-28T21:30:01.805Z,2.80
2019-02-28T21:32:34.663Z,3.03
2019-02-28T21:35:04.859Z,3.70
2019-02-28T21:37:34.972Z,3.87
2019-02-28T21:40:05.884Z,3.80
2019-02-28T21:42:36.049Z,2.73
2019-02-28T21:45:10.938Z,2.67
2019-02-28T21:47:41.395Z,2.67
2019-02-28T21:50:13.648Z,2.43
2019-02-28T21:52:43.848Z,2.60
2019-02-28T21:55:14.623Z,2.80
2019-02-28T21:57:44.940Z,2.80
2019-02-28T22:00:21.139Z,2.90
2019-02-28T22:02:51.538Z,2.60
2019-02-28T22:05:22.371Z,2.80
2019-02-28T22:07:53.114Z,2.30
2019-02-28T22:10:23.551Z,2.20
2019-02-28T22:12:54.722Z,2.43
2019-02-28T22:15:24.895Z,1.87
2019-02-28T22:17:55.400Z,2.33
2019-02-28T22:20:26.735Z,2.30
2019-02-28T22:22:57.465Z,2.00
2019-02-28T22:25:29.516Z,2.30
2019-02-28T22:28:00.745Z,2.20
2019-02-28T22:31:05.027Z,2.07
2019-02-28T22:33:44.569Z,2.50
2019-02-28T22:36:18.640Z,1.73
2019-02-28T22:38:51.334Z,1.77
2019-02-28T22:41:23.572Z,2.40
2019-02-28T22:43:54.384Z,1.77
2019-02-28T22:46:34.565Z,1.97
2019-02-28T22:49:07.799Z,2.40
2019-02-28T22:51:40.349Z,1.70
2019-02-28T22:54:10.796Z,1.70
2019-02-28T22:56:44.033Z,1.90
2019-02-28T22:59:15.231Z,2.20
2019-02-28T23:01:48.140Z,1.80
2019-02-28T23:04:18.481Z,1.73
2019-02-28T23:06:49.659Z,1.70
2019-02-28T23:09:19.854Z,2.17
2019-02-28T23:11:51.460Z,1.67
2019-02-28T23:14:21.727Z,2.10
2019-02-28T23:16:52.028Z,1.60
2019-02-28T23:19:22.389Z,1.77
2019-02-28T23:21:55.159Z,2.00
2019-02-28T23:24:26.674Z,1.87
2019-02-28T23:27:14.137Z,1.73
2019-02-28T23:29:52.868Z,1.63
2019-02-28T23:32:51.535Z,1.90
2019-02-28T23:35:26.918Z,1.87
2019-02-28T23:37:57.111Z,2.80
2019-02-28T23:40:29.166Z,2.10
2019-02-28T23:42:59.335Z,2.37
2019-02-28T23:45:29.859Z,2.47
2019-02-28T23:48:00.153Z,2.37
2019-02-28T23:50:30.809Z,2.20
2019-02-28T23:53:01.266Z,2.50
2019-02-28T23:55:40.027Z,2.00
2019-02-28T23:58:10.671Z,2.50
